Time;durP1;ratioP1;P1;durP2;ratioP2;P2;SDS_P1;SDS_P2;PMS_P1;PMS_P2;Temp;Humidity;BMP_temperature;BMP_pressure;BME280_temperature;BME280_humidity;BME280_pressure;Samples;Min_cycle;Max_cycle;Signal;HPM_P1;HPM_P2
2023/04/03 02:01:35;;;;;;;1.75;1.37;;;;;;;;;;4533258;28;20091;-70
2023/04/03 02:04:02;;;;;;;0.73;0.73;;;;;;;;;;4252421;33;20112;-69
2023/04/03 02:06:28;;;;;;;9.65;1.70;;;;;;;;;;4250717;33;20188;-69
2023/04/03 02:08:54;;;;;;;7.32;1.62;;;;;;;;;;4251299;33;20034;-70
2023/04/03 02:11:21;;;;;;;1.02;0.88;;;;;;;;;;4250524;33;20030;-70
2023/04/03 02:13:47;;;;;;;1.17;1.15;;;;;;;;;;4252096;33;20074;-69
2023/04/03 02:16:13;;;;;;;3.60;1.90;;;;;;;;;;4251534;33;20092;-68
2023/04/03 02:18:39;;;;;;;1.45;1.20;;;;;;;;;;4235366;33;20065;-69
2023/04/03 02:21:05;;;;;;;5.97;1.08;;;;;;;;;;4234941;33;20050;-69
2023/04/03 02:23:32;;;;;;;5.53;0.98;;;;;;;;;;4231787;33;20537;-69
2023/04/03 02:26:05;;;;;;;2.15;1.10;;;;;;;;;;4234310;33;20061;-69
2023/04/03 02:28:32;;;;;;;1.20;1.20;;;;;;;;;;4234894;33;20136;-68
2023/04/03 02:30:58;;;;;;;1.17;0.90;;;;;;;;;;4235950;33;20108;-69
2023/04/03 02:33:25;;;;;;;2.90;0.73;;;;;;;;;;4233901;33;20493;-70
2023/04/03 02:35:55;;;;;;;3.62;1.27;;;;;;;;;;4230782;33;20050;-68
2023/04/03 02:38:22;;;;;;;3.15;1.30;;;;;;;;;;4235483;33;20030;-68
2023/04/03 02:40:48;;;;;;;1.40;1.30;;;;;;;;;;4236169;33;20042;-69
2023/04/03 02:43:15;;;;;;;1.27;0.82;;;;;;;;;;4235502;33;20046;-70
2023/04/03 02:45:42;;;;;;;1.75;1.00;;;;;;;;;;4229681;33;20442;-68
2023/04/03 02:48:08;;;;;;;6.85;1.30;;;;;;;;;;4230218;33;20471;-69
2023/04/03 02:50:34;;;;;;;0.57;0.57;;;;;;;;;;4208121;34;20381;-68
2023/04/03 02:53:01;;;;;;;2.78;1.50;;;;;;;;;;4194744;34;20055;-69
2023/04/03 02:55:27;;;;;;;1.52;1.42;;;;;;;;;;4192850;34;20062;-69
2023/04/03 02:57:54;;;;;;;3.83;1.20;;;;;;;;;;4192731;34;20632;-69
2023/04/03 03:00:21;;;;;;;1.98;1.77;;;;;;;;;;4190395;34;20039;-69
2023/04/03 03:02:48;;;;;;;2.17;1.00;;;;;;;;;;4193156;34;20075;-68
2023/04/03 03:05:14;;;;;;;6.45;1.90;;;;;;;;;;4192901;34;20410;-68
2023/04/03 03:07:41;;;;;;;4.18;1.35;;;;;;;;;;4176436;34;20051;-69
2023/04/03 03:10:07;;;;;;;2.53;0.93;;;;;;;;;;4180391;34;20091;-69
2023/04/03 03:12:41;;;;;;;4.90;1.87;;;;;;;;;;4174996;34;20398;-70
2023/04/03 03:15:08;;;;;;;1.27;1.17;;;;;;;;;;4169990;34;20101;-70
2023/04/03 03:17:35;;;;;;;6.30;1.50;;;;;;;;;;4170992;34;20061;-69
2023/04/03 03:20:02;;;;;;;2.90;1.90;;;;;;;;;;4173501;34;20922;-70
2023/04/03 03:22:29;;;;;;;1.70;1.25;;;;;;;;;;4171376;34;20043;-69
2023/04/03 03:24:55;;;;;;;1.52;1.48;;;;;;;;;;4182588;34;20040;-70
2023/04/03 03:27:21;;;;;;;0.65;0.65;;;;;;;;;;4184447;34;20065;-70
2023/04/03 03:29:47;;;;;;;1.15;1.15;;;;;;;;;;4186064;34;20137;-69
2023/04/03 03:32:14;;;;;;;3.00;2.28;;;;;;;;;;4213089;34;20058;-70
2023/04/03 03:34:40;;;;;;;3.83;0.70;;;;;;;;;;4221780;34;20026;-69
2023/04/03 03:37:06;;;;;;;0.50;0.50;;;;;;;;;;4221361;34;20506;-69
2023/04/03 03:39:32;;;;;;;3.55;1.45;;;;;;;;;;4244718;33;20110;-70
2023/04/03 03:41:58;;;;;;;0.82;0.70;;;;;;;;;;4219513;33;20222;-69
2023/04/03 03:44:25;;;;;;;0.88;0.88;;;;;;;;;;4221343;34;20022;-69
2023/04/03 03:46:52;;;;;;;4.47;1.45;;;;;;;;;;4220920;33;20046;-70
2023/04/03 03:49:19;;;;;;;3.65;1.48;;;;;;;;;;4219297;34;20035;-70
2023/04/03 03:51:45;;;;;;;3.15;1.80;;;;;;;;;;4190185;34;20113;-69
2023/04/03 03:54:11;;;;;;;2.97;1.42;;;;;;;;;;4195580;34;20527;-69
2023/04/03 03:56:38;;;;;;;1.65;1.17;;;;;;;;;;4194861;34;20090;-69
2023/04/03 03:59:04;;;;;;;3.12;1.55;;;;;;;;;;4195574;34;20077;-69
2023/04/03 04:01:31;;;;;;;3.60;2.37;;;;;;;;;;4192900;34;20047;-69
2023/04/03 04:03:57;;;;;;;2.60;1.50;;;;;;;;;;4195769;34;20039;-70
2023/04/03 04:06:24;;;;;;;1.10;0.70;;;;;;;;;;4195985;34;20077;-70
2023/04/03 04:08:51;;;;;;;3.20;1.17;;;;;;;;;;4195718;34;20137;-70
2023/04/03 04:11:18;;;;;;;8.45;1.20;;;;;;;;;;4196200;34;20091;-69
2023/04/03 04:13:45;;;;;;;1.10;1.10;;;;;;;;;;4211832;34;20068;-70
2023/04/03 04:16:11;;;;;;;0.70;0.70;;;;;;;;;;4222071;34;20054;-69
2023/04/03 04:18:38;;;;;;;2.55;0.88;;;;;;;;;;4223086;34;20098;-69
2023/04/03 04:21:04;;;;;;;1.00;1.00;;;;;;;;;;4223295;34;20123;-69
2023/04/03 04:23:30;;;;;;;2.25;1.02;;;;;;;;;;4197697;34;20172;-69
2023/04/03 04:25:58;;;;;;;0.62;0.62;;;;;;;;;;4192901;34;20071;-70
2023/04/03 04:28:24;;;;;;;1.67;1.52;;;;;;;;;;4206350;34;20076;-69
2023/04/03 04:30:52;;;;;;;1.00;0.90;;;;;;;;;;4209141;34;20523;-69
2023/04/03 04:33:19;;;;;;;0.85;0.85;;;;;;;;;;4207804;34;20384;-70
2023/04/03 04:35:46;;;;;;;5.62;1.25;;;;;;;;;;4208344;34;20043;-70
2023/04/03 04:38:12;;;;;;;3.87;1.70;;;;;;;;;;4206084;34;20039;-69
2023/04/03 04:40:40;;;;;;;5.03;1.52;;;;;;;;;;4207633;34;20891;-69
2023/04/03 04:43:06;;;;;;;1.40;1.40;;;;;;;;;;4209107;34;20185;-70
2023/04/03 04:45:33;;;;;;;3.40;1.33;;;;;;;;;;4209434;34;20031;-68
2023/04/03 04:47:59;;;;;;;1.30;1.12;;;;;;;;;;4207159;34;20080;-70
2023/04/03 04:50:26;;;;;;;1.75;0.52;;;;;;;;;;4208976;34;20061;-68
2023/04/03 04:52:52;;;;;;;3.75;1.02;;;;;;;;;;4221724;34;20434;-69
2023/04/03 04:55:19;;;;;;;1.37;1.37;;;;;;;;;;4228594;33;20073;-69
2023/04/03 04:57:45;;;;;;;2.10;1.17;;;;;;;;;;4224290;33;20043;-69
2023/04/03 05:00:12;;;;;;;7.25;2.85;;;;;;;;;;4219281;33;20070;-71
2023/04/03 05:02:39;;;;;;;13.55;1.70;;;;;;;;;;4222027;34;20093;-68
2023/04/03 05:05:06;;;;;;;1.70;1.15;;;;;;;;;;4206839;34;20047;-68
2023/04/03 05:07:33;;;;;;;1.55;1.10;;;;;;;;;;4207911;34;20082;-69
2023/04/03 05:10:00;;;;;;;6.95;2.55;;;;;;;;;;4212267;34;20051;-68
2023/04/03 05:12:27;;;;;;;1.83;1.27;;;;;;;;;;4207260;34;20059;-69
2023/04/03 05:14:54;;;;;;;2.65;1.83;;;;;;;;;;4209502;34;20055;-69
2023/04/03 05:17:20;;;;;;;1.33;0.98;;;;;;;;;;4199158;34;20027;-68
2023/04/03 05:19:47;;;;;;;3.83;1.95;;;;;;;;;;4211228;34;20587;-68
2023/04/03 05:22:14;;;;;;;12.25;1.98;;;;;;;;;;4202897;34;20039;-67
2023/04/03 05:24:41;;;;;;;5.55;1.92;;;;;;;;;;4206110;34;20086;-69
2023/04/03 05:27:08;;;;;;;1.95;1.35;;;;;;;;;;4209937;34;20096;-68
2023/04/03 05:29:35;;;;;;;1.62;0.77;;;;;;;;;;4211132;34;20086;-68
2023/04/03 05:32:01;;;;;;;8.80;1.62;;;;;;;;;;4205717;34;20023;-71
2023/04/03 05:34:28;;;;;;;0.90;0.90;;;;;;;;;;4214470;34;20464;-70
2023/04/03 05:36:55;;;;;;;9.40;1.90;;;;;;;;;;4239912;33;20075;-68
2023/04/03 05:39:22;;;;;;;3.45;1.50;;;;;;;;;;4241220;33;20196;-69
2023/04/03 05:41:48;;;;;;;3.55;0.75;;;;;;;;;;4243910;33;20792;-70
2023/04/03 05:44:15;;;;;;;2.05;0.93;;;;;;;;;;4237147;33;20068;-70
2023/04/03 05:46:42;;;;;;;3.90;1.50;;;;;;;;;;4243585;33;20373;-68
2023/04/03 05:49:09;;;;;;;4.75;1.83;;;;;;;;;;4232177;33;20072;-68
2023/04/03 05:51:35;;;;;;;2.62;1.02;;;;;;;;;;4233853;33;20068;-67
2023/04/03 05:54:10;;;;;;;4.80;3.15;;;;;;;;;;4230783;33;20421;-68
2023/04/03 05:56:36;;;;;;;0.60;0.60;;;;;;;;;;4215690;34;20051;-67
2023/04/03 05:59:03;;;;;;;1.67;1.58;;;;;;;;;;4219965;34;20394;-68
2023/04/03 06:01:29;;;;;;;4.55;2.30;;;;;;;;;;4220598;34;20100;-67
2023/04/03 06:03:58;;;;;;;3.97;2.17;;;;;;;;;;4220148;34;20084;-69
2023/04/03 06:06:25;;;;;;;4.05;2.28;;;;;;;;;;4219167;34;20035;-67
2023/04/03 06:08:53;;;;;;;0.88;0.82;;;;;;;;;;4219856;34;20100;-67
2023/04/03 06:11:19;;;;;;;4.05;1.95;;;;;;;;;;4220542;34;20042;-68
2023/04/03 06:13:46;;;;;;;4.40;3.00;;;;;;;;;;4249842;33;20521;-68
2023/04/03 06:16:15;;;;;;;4.07;1.27;;;;;;;;;;4238575;33;20389;-70
2023/04/03 06:18:42;;;;;;;6.18;3.10;;;;;;;;;;4242102;33;20047;-68
2023/04/03 06:21:08;;;;;;;3.62;2.20;;;;;;;;;;4220265;33;20051;-70
2023/04/03 06:23:35;;;;;;;4.50;1.45;;;;;;;;;;4220985;33;20211;-69
2023/04/03 06:26:01;;;;;;;2.92;1.92;;;;;;;;;;4221113;33;20080;-69
2023/04/03 06:28:28;;;;;;;8.82;1.98;;;;;;;;;;4227219;33;20472;-69
2023/04/03 06:30:53;;;;;;;1.00;1.00;;;;;;;;;;4206935;34;20126;-66
2023/04/03 06:33:20;;;;;;;4.25;1.50;;;;;;;;;;4206603;34;20306;-67
2023/04/03 06:35:46;;;;;;;2.10;1.90;;;;;;;;;;4192816;34;20027;-67
2023/04/03 06:38:13;;;;;;;8.35;1.05;;;;;;;;;;4192536;34;20078;-67
2023/04/03 06:40:39;;;;;;;0.93;0.93;;;;;;;;;;4191608;34;20039;-67
2023/04/03 06:43:05;;;;;;;1.25;1.05;;;;;;;;;;4191674;34;20063;-69
2023/04/03 06:45:31;;;;;;;3.08;1.70;;;;;;;;;;4197882;34;20055;-69
2023/04/03 06:50:30;;;;;;;2.50;1.35;;;;;;;;;;4181390;34;20047;-67
2023/04/03 06:52:57;;;;;;;2.42;1.65;;;;;;;;;;4203795;34;20425;-67
2023/04/03 06:55:23;;;;;;;2.53;1.98;;;;;;;;;;4199818;34;20047;-68
2023/04/03 06:57:49;;;;;;;1.95;1.20;;;;;;;;;;4194245;34;20098;-68
2023/04/03 07:00:16;;;;;;;0.93;0.90;;;;;;;;;;4195590;34;20119;-68
2023/04/03 07:02:42;;;;;;;7.68;1.27;;;;;;;;;;4212188;34;20059;-70
2023/04/03 07:05:08;;;;;;;0.62;0.62;;;;;;;;;;4218974;33;20074;-67
2023/04/03 07:07:35;;;;;;;1.25;1.15;;;;;;;;;;4219122;34;20523;-69
2023/04/03 07:10:01;;;;;;;11.85;1.30;;;;;;;;;;4219276;34;20043;-70
2023/04/03 07:12:28;;;;;;;2.08;1.65;;;;;;;;;;4221785;33;20381;-69
2023/04/03 07:14:54;;;;;;;3.83;1.08;;;;;;;;;;4236704;33;20738;-69
2023/04/03 07:17:21;;;;;;;1.00;0.82;;;;;;;;;;4234660;33;20531;-68
2023/04/03 07:19:47;;;;;;;1.30;0.93;;;;;;;;;;4233860;33;20105;-68
2023/04/03 07:22:13;;;;;;;0.80;0.80;;;;;;;;;;4234010;33;20380;-66
2023/04/03 07:24:40;;;;;;;0.95;0.85;;;;;;;;;;4234941;33;20043;-67
2023/04/03 07:27:08;;;;;;;1.05;1.05;;;;;;;;;;4231286;33;20520;-67
2023/04/03 07:29:35;;;;;;;1.35;1.25;;;;;;;;;;4220048;33;20088;-67
2023/04/03 07:32:02;;;;;;;2.85;1.60;;;;;;;;;;4218962;33;20076;-67
2023/04/03 07:34:28;;;;;;;0.47;0.47;;;;;;;;;;4194078;34;20731;-67
2023/04/03 07:36:54;;;;;;;0.73;0.73;;;;;;;;;;4201043;34;20043;-70
2023/04/03 07:39:21;;;;;;;1.27;1.23;;;;;;;;;;4202498;34;20050;-67
2023/04/03 07:41:47;;;;;;;2.35;1.80;;;;;;;;;;4193358;34;20083;-69
2023/04/03 07:44:13;;;;;;;5.05;1.67;;;;;;;;;;4164751;34;20620;-68
2023/04/03 07:46:40;;;;;;;2.37;1.48;;;;;;;;;;4163739;34;20114;-68
2023/04/03 07:49:06;;;;;;;3.83;1.05;;;;;;;;;;4163496;34;20079;-69
2023/04/03 07:51:33;;;;;;;0.45;0.45;;;;;;;;;;4164569;34;20055;-68
2023/04/03 07:53:59;;;;;;;1.37;0.82;;;;;;;;;;4166009;34;20066;-69
2023/04/03 07:56:25;;;;;;;0.35;0.35;;;;;;;;;;4163923;34;20074;-68
2023/04/03 07:58:55;;;;;;;1.35;1.15;;;;;;;;;;4165323;34;20031;-68
2023/04/03 08:01:21;;;;;;;0.62;0.62;;;;;;;;;;4151491;34;20070;-68
2023/04/03 08:03:48;;;;;;;3.95;0.65;;;;;;;;;;4164504;34;20044;-68
2023/04/03 08:06:14;;;;;;;1.75;0.95;;;;;;;;;;4187289;34;20052;-68
2023/04/03 08:08:41;;;;;;;0.82;0.82;;;;;;;;;;4204965;34;20449;-68
2023/04/03 08:11:08;;;;;;;2.30;1.17;;;;;;;;;;4204979;34;20092;-68
2023/04/03 08:13:35;;;;;;;3.17;1.33;;;;;;;;;;4203836;34;20058;-68
2023/04/03 08:16:08;;;;;;;0.93;0.90;;;;;;;;;;4219651;34;20061;-68
2023/04/03 08:18:34;;;;;;;0.32;0.32;;;;;;;;;;4216020;34;20042;-69
2023/04/03 08:21:05;;;;;;;2.05;1.40;;;;;;;;;;4212701;34;20685;-70
2023/04/03 08:23:30;;;;;;;1.10;0.82;;;;;;;;;;4186217;34;20047;-70
2023/04/03 08:25:57;;;;;;;0.85;0.85;;;;;;;;;;4150977;34;20078;-68
2023/04/03 08:28:23;;;;;;;2.30;1.27;;;;;;;;;;4146320;34;20372;-67
2023/04/03 08:30:50;;;;;;;0.60;0.60;;;;;;;;;;4150737;34;20112;-67
2023/04/03 08:33:16;;;;;;;1.50;1.40;;;;;;;;;;4154430;34;20040;-68
2023/04/03 08:35:43;;;;;;;1.35;1.25;;;;;;;;;;4161427;34;20142;-68
2023/04/03 08:38:09;;;;;;;0.75;0.75;;;;;;;;;;4163314;34;20040;-67
2023/04/03 08:40:36;;;;;;;0.50;0.50;;;;;;;;;;4162057;34;20082;-67
2023/04/03 08:43:03;;;;;;;2.10;0.50;;;;;;;;;;4166606;34;20048;-71
2023/04/03 08:45:50;;;;;;;0.98;0.52;;;;;;;;;;4165308;34;20422;-67
2023/04/03 08:48:21;;;;;;;1.25;1.05;;;;;;;;;;4167767;34;20047;-68
2023/04/03 08:50:50;;;;;;;2.00;1.80;;;;;;;;;;4152361;34;20559;-71
2023/04/03 08:53:21;;;;;;;2.45;1.00;;;;;;;;;;4152633;34;21078;-69
2023/04/03 08:55:49;;;;;;;13.00;0.60;;;;;;;;;;4138297;34;20462;-68
2023/04/03 08:58:18;;;;;;;3.25;2.00;;;;;;;;;;4153187;34;20074;-68
2023/04/03 09:00:45;;;;;;;1.62;1.60;;;;;;;;;;4150785;34;20037;-69
2023/04/03 09:03:13;;;;;;;1.25;1.25;;;;;;;;;;4165713;34;20051;-68
2023/04/03 09:05:46;;;;;;;1.90;1.20;;;;;;;;;;4167245;34;20058;-67
2023/04/03 09:08:22;;;;;;;1.52;1.15;;;;;;;;;;4178339;34;20048;-68
2023/04/03 09:10:49;;;;;;;3.60;0.73;;;;;;;;;;4192314;34;20087;-69
2023/04/03 09:13:30;;;;;;;2.08;1.33;;;;;;;;;;4206778;34;20514;-68
2023/04/03 09:15:57;;;;;;;0.62;0.62;;;;;;;;;;4207363;34;20420;-68
2023/04/03 09:18:28;;;;;;;0.88;0.88;;;;;;;;;;4215697;34;20115;-71
2023/04/03 09:21:09;;;;;;;0.60;0.60;;;;;;;;;;4212315;34;20077;-69
2023/04/03 09:23:35;;;;;;;1.62;0.82;;;;;;;;;;4209911;34;20050;-68
2023/04/03 09:26:04;;;;;;;1.87;0.88;;;;;;;;;;4218641;33;20057;-68
2023/04/03 09:28:33;;;;;;;1.65;0.95;;;;;;;;;;4240457;33;20051;-68
2023/04/03 09:31:00;;;;;;;0.85;0.85;;;;;;;;;;4261146;33;20063;-68
2023/04/03 09:33:27;;;;;;;0.70;0.70;;;;;;;;;;4238010;33;20060;-67
2023/04/03 09:35:54;;;;;;;1.17;1.08;;;;;;;;;;4248589;33;20034;-68
2023/04/03 09:38:21;;;;;;;5.22;0.85;;;;;;;;;;4246913;33;20485;-68
2023/04/03 09:40:49;;;;;;;0.40;0.40;;;;;;;;;;4245186;33;20361;-68
2023/04/03 09:43:26;;;;;;;5.78;1.20;;;;;;;;;;4221665;34;20447;-69
2023/04/03 09:45:53;;;;;;;12.15;1.25;;;;;;;;;;4210881;34;20233;-71
2023/04/03 09:48:19;;;;;;;1.05;1.05;;;;;;;;;;4219318;34;20087;-67
2023/04/03 09:50:51;;;;;;;1.40;0.93;;;;;;;;;;4217076;34;20043;-68
2023/04/03 09:53:49;;;;;;;12.73;0.80;;;;;;;;;;4211206;34;20377;-67
2023/04/03 09:56:16;;;;;;;0.62;0.62;;;;;;;;;;4225679;33;20070;-67
2023/04/03 09:58:46;;;;;;;4.97;1.00;;;;;;;;;;4230236;33;20181;-68
2023/04/03 10:01:21;;;;;;;1.50;1.05;;;;;;;;;;4231248;33;20086;-68
2023/04/03 10:04:12;;;;;;;5.72;1.45;;;;;;;;;;4226135;33;20560;-68
2023/04/03 10:06:46;;;;;;;2.78;0.93;;;;;;;;;;4206652;34;20083;-68
2023/04/03 10:09:42;;;;;;;0.85;0.80;;;;;;;;;;4173049;34;20042;-68
2023/04/03 10:12:11;;;;;;;2.90;0.90;;;;;;;;;;4164241;34;20105;-68
2023/04/03 10:14:53;;;;;;;7.28;1.12;;;;;;;;;;4165471;34;20097;-72
2023/04/03 10:17:20;;;;;;;2.05;0.88;;;;;;;;;;4164493;34;20044;-68
2023/04/03 10:19:46;;;;;;;7.00;1.60;;;;;;;;;;4164741;34;20066;-68
2023/04/03 10:22:22;;;;;;;15.35;0.93;;;;;;;;;;4164784;34;20052;-71
2023/04/03 10:24:58;;;;;;;1.08;1.00;;;;;;;;;;4165532;34;20070;-68
2023/04/03 10:27:25;;;;;;;1.08;0.82;;;;;;;;;;4179190;34;20123;-69
2023/04/03 10:29:51;;;;;;;0.88;0.88;;;;;;;;;;4178454;34;20411;-68
2023/04/03 10:32:23;;;;;;;1.83;0.85;;;;;;;;;;4169717;34;20293;-70
2023/04/03 10:34:52;;;;;;;2.30;1.50;;;;;;;;;;4154159;34;20056;-68
2023/04/03 10:37:19;;;;;;;0.52;0.52;;;;;;;;;;4159939;34;20068;-69
2023/04/03 10:39:45;;;;;;;0.55;0.55;;;;;;;;;;4178525;34;20048;-68
2023/04/03 10:42:30;;;;;;;1.52;1.20;;;;;;;;;;4177136;34;20120;-70
2023/04/03 10:44:57;;;;;;;0.90;0.90;;;;;;;;;;4193011;34;20048;-68
2023/04/03 10:47:42;;;;;;;2.50;0.98;;;;;;;;;;4192916;34;20052;-68
2023/04/03 10:50:14;;;;;;;0.98;0.60;;;;;;;;;;4199437;34;20059;-69
2023/04/03 10:52:40;;;;;;;;;;;;;;;;;;4234529;33;20803;-68
2023/04/03 10:55:25;;;;;;;11.20;0.88;;;;;;;;;;4208409;34;19982;-68
2023/04/03 10:57:54;;;;;;;0.52;0.52;;;;;;;;;;4194013;34;20384;-68
2023/04/03 11:03:29;;;;;;;1.20;1.20;;;;;;;;;;4200024;34;20135;-70
2023/04/03 11:06:02;;;;;;;4.28;1.25;;;;;;;;;;4190924;34;20086;-69
2023/04/03 11:08:47;;;;;;;0.50;0.50;;;;;;;;;;4191399;34;20069;-68
2023/04/03 11:11:17;;;;;;;3.22;0.95;;;;;;;;;;4189752;34;20137;-68
2023/04/03 11:13:49;;;;;;;4.05;1.10;;;;;;;;;;4191624;34;20043;-67
2023/04/03 11:16:19;;;;;;;1.02;0.73;;;;;;;;;;4196447;34;20122;-69
2023/04/03 11:19:08;;;;;;;1.67;1.15;;;;;;;;;;4192193;34;20043;-70
2023/04/03 11:21:39;;;;;;;1.00;1.00;;;;;;;;;;4187188;34;20063;-69
2023/04/03 11:24:11;;;;;;;0.97;0.87;;;;;;;;;;4191061;34;20039;-68
2023/04/03 11:26:40;;;;;;;2.00;1.02;;;;;;;;;;4196077;34;20055;-69
2023/04/03 11:29:08;;;;;;;2.37;0.98;;;;;;;;;;4184540;34;20048;-68
2023/04/03 11:31:37;;;;;;;2.72;1.60;;;;;;;;;;4193524;34;20051;-68
2023/04/03 11:34:12;;;;;;;0.98;0.85;;;;;;;;;;4188933;34;20051;-70
2023/04/03 11:36:42;;;;;;;1.50;0.75;;;;;;;;;;4181412;34;20060;-71
2023/04/03 11:39:17;;;;;;;0.85;0.85;;;;;;;;;;4163579;34;20499;-68
2023/04/03 11:41:43;;;;;;;0.35;0.35;;;;;;;;;;4160988;34;20082;-69
2023/04/03 11:44:32;;;;;;;0.73;0.73;;;;;;;;;;4151004;34;20045;-69
2023/04/03 11:46:59;;;;;;;1.75;1.00;;;;;;;;;;4136613;34;20417;-69
2023/04/03 11:49:44;;;;;;;0.98;0.95;;;;;;;;;;4155653;34;20028;-67
2023/04/03 11:52:11;;;;;;;0.98;0.93;;;;;;;;;;4150354;34;20076;-70
2023/04/03 11:54:40;;;;;;;0.73;0.73;;;;;;;;;;4158096;34;20235;-69
2023/04/03 11:57:25;;;;;;;4.07;1.75;;;;;;;;;;4160866;34;20570;-68
2023/04/03 11:59:51;;;;;;;3.67;0.88;;;;;;;;;;4155259;34;20049;-68
2023/04/03 12:02:36;;;;;;;0.80;0.80;;;;;;;;;;4181236;34;20059;-70
2023/04/03 12:05:22;;;;;;;1.58;0.77;;;;;;;;;;4190840;34;20144;-69
2023/04/03 12:08:07;;;;;;;0.60;0.50;;;;;;;;;;4201869;34;20054;-68
2023/04/03 12:10:33;;;;;;;2.53;1.30;;;;;;;;;;4196898;34;20129;-69
2023/04/03 12:13:02;;;;;;;0.60;0.60;;;;;;;;;;4195080;34;20496;-69
2023/04/03 12:15:48;;;;;;;1.30;1.20;;;;;;;;;;4195098;34;20059;-68
2023/04/03 12:18:33;;;;;;;2.05;1.40;;;;;;;;;;4195518;34;20055;-69
2023/04/03 12:21:00;;;;;;;0.95;0.95;;;;;;;;;;4207114;34;20040;-69
2023/04/03 12:23:31;;;;;;;5.43;1.40;;;;;;;;;;4204739;34;20043;-71
2023/04/03 12:26:03;;;;;;;5.32;1.10;;;;;;;;;;4208515;34;20089;-69
2023/04/03 12:28:35;;;;;;;0.82;0.82;;;;;;;;;;4207852;34;20485;-69
2023/04/03 12:31:02;;;;;;;0.97;0.80;;;;;;;;;;4189281;34;20450;-69
2023/04/03 12:33:31;;;;;;;1.48;1.33;;;;;;;;;;4185534;34;20145;-71
2023/04/03 12:36:04;;;;;;;2.20;1.20;;;;;;;;;;4161455;34;20753;-69
2023/04/03 12:38:40;;;;;;;1.50;1.40;;;;;;;;;;4145632;34;20525;-69
2023/04/03 12:41:13;;;;;;;2.72;1.15;;;;;;;;;;4146388;34;20048;-71
2023/04/03 12:43:48;;;;;;;1.67;1.20;;;;;;;;;;4147109;34;20064;-69
2023/04/03 12:46:16;;;;;;;1.55;1.20;;;;;;;;;;4152689;34;20048;-70
2023/04/03 12:48:47;;;;;;;0.90;0.85;;;;;;;;;;4151327;34;20060;-70
2023/04/03 12:51:15;;;;;;;3.12;1.50;;;;;;;;;;4151349;34;20106;-70
2023/04/03 12:53:42;;;;;;;0.95;0.93;;;;;;;;;;4152222;34;20477;-70
2023/04/03 12:56:26;;;;;;;3.05;1.45;;;;;;;;;;4146537;34;20036;-70
2023/04/03 12:58:54;;;;;;;7.28;2.03;;;;;;;;;;4145166;34;20048;-70
2023/04/03 13:01:21;;;;;;;4.37;2.42;;;;;;;;;;4141286;34;20053;-69
2023/04/03 13:03:48;;;;;;;2.55;2.03;;;;;;;;;;4160998;34;20039;-69
2023/04/03 13:08:52;;;;;;;2.40;2.17;;;;;;;;;;4189399;34;20074;-70
2023/04/03 13:11:20;;;;;;;1.05;1.05;;;;;;;;;;4209595;34;20441;-69
2023/04/03 13:13:57;;;;;;;1.15;1.00;;;;;;;;;;4206224;34;20094;-70
2023/04/03 13:16:24;;;;;;;1.35;1.20;;;;;;;;;;4207625;34;20090;-68
2023/04/03 13:18:52;;;;;;;2.33;1.52;;;;;;;;;;4195491;34;20098;-72
2023/04/03 13:21:21;;;;;;;1.40;1.17;;;;;;;;;;4192946;34;20096;-70
2023/04/03 13:23:50;;;;;;;1.08;0.82;;;;;;;;;;4195595;34;20055;-69
2023/04/03 13:26:17;;;;;;;1.00;1.00;;;;;;;;;;4192511;34;20048;-69
2023/04/03 13:28:43;;;;;;;1.75;1.10;;;;;;;;;;4196656;34;20420;-70
2023/04/03 13:31:13;;;;;;;1.08;0.80;;;;;;;;;;4194711;34;20069;-69
2023/04/03 13:33:51;;;;;;;3.42;2.35;;;;;;;;;;4194094;34;20427;-69
2023/04/03 13:36:19;;;;;;;2.85;1.05;;;;;;;;;;4192717;34;20869;-69
2023/04/03 13:38:46;;;;;;;2.92;1.95;;;;;;;;;;4195963;34;20572;-71
2023/04/03 13:41:24;;;;;;;4.90;1.10;;;;;;;;;;4193711;34;20069;-69
2023/04/03 13:43:51;;;;;;;1.15;0.90;;;;;;;;;;4197674;34;20065;-69
2023/04/03 13:46:17;;;;;;;3.55;0.90;;;;;;;;;;4180329;34;20370;-70
2023/04/03 13:48:47;;;;;;;2.15;1.08;;;;;;;;;;4183975;34;20081;-71
2023/04/03 13:51:14;;;;;;;0.85;0.65;;;;;;;;;;4187467;34;20967;-69
2023/04/03 13:53:43;;;;;;;3.15;1.33;;;;;;;;;;4178926;34;20067;-69
2023/04/03 13:56:16;;;;;;;5.53;1.85;;;;;;;;;;4179205;34;20402;-70
2023/04/03 13:58:52;;;;;;;6.32;2.28;;;;;;;;;;4155707;34;20235;-70
2023/04/03 14:01:20;;;;;;;0.75;0.75;;;;;;;;;;4154409;34;20908;-69
2023/04/03 14:03:51;;;;;;;3.12;1.50;;;;;;;;;;4159510;34;20073;-69
2023/04/03 14:06:17;;;;;;;5.20;1.30;;;;;;;;;;4130471;34;20459;-69
2023/04/03 14:08:45;;;;;;;1.77;1.67;;;;;;;;;;4133822;34;20116;-71
2023/04/03 14:11:15;;;;;;;4.03;1.25;;;;;;;;;;4136676;34;20057;-70
2023/04/03 14:13:41;;;;;;;2.40;1.17;;;;;;;;;;4136359;34;20053;-71
2023/04/03 14:16:11;;;;;;;4.62;1.67;;;;;;;;;;4150482;34;20074;-69
2023/04/03 14:18:38;;;;;;;3.95;2.12;;;;;;;;;;4151700;34;20052;-69
2023/04/03 14:21:04;;;;;;;2.87;1.52;;;;;;;;;;4149747;34;20052;-70
2023/04/03 14:23:30;;;;;;;3.20;1.40;;;;;;;;;;4151301;34;20070;-68
2023/04/03 14:25:58;;;;;;;0.65;0.65;;;;;;;;;;4137645;34;20678;-68
2023/04/03 14:28:25;;;;;;;2.55;1.23;;;;;;;;;;4137713;34;20619;-69
2023/04/03 14:30:51;;;;;;;6.70;1.60;;;;;;;;;;4175908;34;20070;-70
2023/04/03 14:33:19;;;;;;;3.47;1.10;;;;;;;;;;4167720;34;20075;-69
2023/04/03 14:35:45;;;;;;;4.62;0.82;;;;;;;;;;4166361;34;20044;-70
2023/04/03 14:38:30;;;;;;;2.92;1.20;;;;;;;;;;4151341;34;20442;-71
2023/04/03 14:40:57;;;;;;;2.53;1.20;;;;;;;;;;4151925;34;20045;-68
2023/04/03 14:43:23;;;;;;;4.03;1.58;;;;;;;;;;4158322;34;20207;-68
2023/04/03 14:45:50;;;;;;;0.68;0.68;;;;;;;;;;4152292;34;20045;-68
2023/04/03 14:48:20;;;;;;;3.22;1.87;;;;;;;;;;4152554;34;20399;-71
2023/04/03 14:50:47;;;;;;;1.95;1.48;;;;;;;;;;4164035;34;20500;-72
2023/04/03 14:53:14;;;;;;;1.62;1.52;;;;;;;;;;4165210;34;20079;-70
2023/04/03 14:55:42;;;;;;;7.10;1.58;;;;;;;;;;4139940;34;20378;-68
2023/04/03 14:58:16;;;;;;;3.53;1.23;;;;;;;;;;4138926;34;20070;-68
2023/04/03 15:00:43;;;;;;;2.28;0.70;;;;;;;;;;4150699;34;20095;-71
2023/04/03 15:03:14;;;;;;;1.08;1.02;;;;;;;;;;4150799;34;20068;-68
2023/04/03 15:05:40;;;;;;;0.95;0.95;;;;;;;;;;4152465;34;20041;-68
2023/04/03 15:08:17;;;;;;;2.47;1.17;;;;;;;;;;4146625;34;20857;-68
2023/04/03 15:10:43;;;;;;;2.35;1.20;;;;;;;;;;4124608;34;20041;-68
2023/04/03 15:13:11;;;;;;;1.20;0.98;;;;;;;;;;4125401;34;20066;-69
2023/04/03 15:15:37;;;;;;;6.62;1.50;;;;;;;;;;4135020;34;20074;-68
2023/04/03 15:18:04;;;;;;;4.00;1.27;;;;;;;;;;4126481;34;20100;-68
2023/04/03 15:20:32;;;;;;;1.15;1.15;;;;;;;;;;4123211;34;20033;-73
2023/04/03 15:23:04;;;;;;;3.78;1.85;;;;;;;;;;4149634;34;20070;-67
2023/04/03 15:25:31;;;;;;;2.90;1.50;;;;;;;;;;4142249;34;20220;-67
2023/04/03 15:27:57;;;;;;;8.85;2.12;;;;;;;;;;4177970;34;20069;-67
2023/04/03 15:30:23;;;;;;;4.40;2.10;;;;;;;;;;4176791;34;20113;-69
2023/04/03 15:32:50;;;;;;;10.48;1.83;;;;;;;;;;4186523;34;20055;-67
2023/04/03 15:35:23;;;;;;;1.90;1.48;;;;;;;;;;4177638;34;20094;-67
2023/04/03 15:37:51;;;;;;;2.80;1.33;;;;;;;;;;4191066;34;20073;-67
2023/04/03 15:40:17;;;;;;;2.08;1.55;;;;;;;;;;4192833;34;20051;-68
2023/04/03 15:42:43;;;;;;;2.00;0.80;;;;;;;;;;4176568;34;20081;-70
2023/04/03 15:45:10;;;;;;;6.90;2.45;;;;;;;;;;4177972;34;20055;-68
2023/04/03 15:47:36;;;;;;;9.88;3.47;;;;;;;;;;4178118;34;20085;-69
2023/04/03 15:50:02;;;;;;;7.57;2.62;;;;;;;;;;4178425;34;20047;-69
2023/04/03 15:52:29;;;;;;;1.83;1.50;;;;;;;;;;4183785;34;20104;-72
2023/04/03 15:54:55;;;;;;;2.62;2.17;;;;;;;;;;4203395;34;20440;-71
2023/04/03 15:57:25;;;;;;;2.90;1.17;;;;;;;;;;4192166;34;20085;-69
2023/04/03 15:59:52;;;;;;;4.95;1.65;;;;;;;;;;4192816;34;20044;-69
2023/04/03 16:02:18;;;;;;;2.58;1.60;;;;;;;;;;4151197;34;20053;-68
2023/04/03 16:04:44;;;;;;;3.87;2.15;;;;;;;;;;4140110;34;20489;-69
2023/04/03 16:07:11;;;;;;;1.05;0.90;;;;;;;;;;4135064;34;20440;-69
2023/04/03 16:09:37;;;;;;;1.30;1.12;;;;;;;;;;4137777;34;20067;-69
2023/04/03 16:12:03;;;;;;;3.58;1.00;;;;;;;;;;4137867;34;20472;-69
2023/04/03 16:14:30;;;;;;;4.20;1.85;;;;;;;;;;4148438;34;20058;-69
2023/04/03 16:16:57;;;;;;;3.22;2.12;;;;;;;;;;4149847;34;20052;-71
2023/04/03 16:19:23;;;;;;;3.90;2.35;;;;;;;;;;4150876;34;20897;-69
2023/04/03 16:21:50;;;;;;;5.72;1.70;;;;;;;;;;4151320;34;20459;-68
2023/04/03 16:24:15;;;;;;;3.00;1.60;;;;;;;;;;4138560;34;20050;-68
2023/04/03 16:26:42;;;;;;;13.23;3.58;;;;;;;;;;4151344;34;20621;-68
2023/04/03 16:29:08;;;;;;;2.50;1.27;;;;;;;;;;4149868;34;20075;-71
2023/04/03 16:31:35;;;;;;;10.20;2.80;;;;;;;;;;4151127;34;20046;-68
2023/04/03 16:34:01;;;;;;;7.70;4.15;;;;;;;;;;4151314;34;20059;-68
2023/04/03 16:36:28;;;;;;;4.28;2.92;;;;;;;;;;4151287;34;20114;-69
2023/04/03 16:38:54;;;;;;;11.55;2.28;;;;;;;;;;4152286;34;20048;-69
2023/04/03 16:41:21;;;;;;;6.80;2.95;;;;;;;;;;4149675;34;20101;-69
2023/04/03 16:43:47;;;;;;;8.77;2.40;;;;;;;;;;4151599;34;20218;-69
2023/04/03 16:46:13;;;;;;;6.57;2.53;;;;;;;;;;4165352;34;20049;-68
2023/04/03 16:48:40;;;;;;;8.25;3.97;;;;;;;;;;4164915;34;20120;-69
2023/04/03 16:51:06;;;;;;;7.30;2.65;;;;;;;;;;4164424;34;20041;-71
2023/04/03 16:53:32;;;;;;;15.43;3.10;;;;;;;;;;4177612;34;20032;-69
2023/04/03 16:55:59;;;;;;;8.32;2.03;;;;;;;;;;4178640;34;20074;-69
2023/04/03 16:58:25;;;;;;;3.17;2.05;;;;;;;;;;4179465;34;20058;-69
2023/04/03 17:00:53;;;;;;;6.60;2.83;;;;;;;;;;4180005;34;20504;-70